Time;durP1;ratioP1;P1;durP2;ratioP2;P2;SDS_P1;SDS_P2;PMS_P1;PMS_P2;Temp;Humidity;BMP_temperature;BMP_pressure;BME280_temperature;BME280_humidity;BME280_pressure;Samples;Min_cycle;Max_cycle;Signal;HPM_P1;HPM_P2
2022/06/26 00:01:46;;;;;;;;;;;18.60;99.90;;;;;;5086087;28;19951;-70
2022/06/26 00:04:13;;;;;;;;;;;18.50;99.90;;;;;;5085508;28;19984;-70
2022/06/26 00:06:41;;;;;;;;;;;18.50;99.90;;;;;;5085653;28;20254;-70
2022/06/26 00:09:07;;;;;;;;;;;18.50;99.90;;;;;;5085597;28;20277;-70
2022/06/26 00:11:34;;;;;;;;;;;18.40;99.90;;;;;;5085168;28;19921;-70
2022/06/26 00:14:01;;;;;;;;;;;18.40;99.90;;;;;;5084872;28;20226;-70
2022/06/26 00:16:27;;;;;;;;;;;18.40;99.90;;;;;;5085573;28;19921;-70
2022/06/26 00:18:55;;;;;;;;;;;18.30;99.90;;;;;;5085804;28;19921;-70
2022/06/26 00:21:22;;;;;;;;;;;18.30;99.90;;;;;;5085636;28;19920;-70
2022/06/26 00:23:51;;;;;;;;;;;18.30;99.90;;;;;;5085167;28;19920;-70
2022/06/26 00:26:18;;;;;;;;;;;18.30;99.90;;;;;;5085210;28;19920;-70
2022/06/26 00:28:45;;;;;;;;;;;18.20;99.90;;;;;;5085518;28;19971;-70
2022/06/26 00:31:11;;;;;;;;;;;18.20;99.90;;;;;;5085195;28;19984;-70
2022/06/26 00:33:38;;;;;;;;;;;18.20;99.90;;;;;;5085186;28;19956;-72
2022/06/26 00:36:05;;;;;;;;;;;18.10;99.90;;;;;;5085203;28;19952;-70
2022/06/26 00:38:31;;;;;;;;;;;18.10;99.90;;;;;;5084491;28;20164;-70
2022/06/26 00:40:59;;;;;;;;;;;18.10;99.90;;;;;;5084414;28;20188;-70
2022/06/26 00:43:27;;;;;;;;;;;18.00;99.90;;;;;;5085015;28;19957;-70
2022/06/26 00:45:53;;;;;;;;;;;18.00;99.90;;;;;;5085145;28;19928;-70
2022/06/26 00:48:20;;;;;;;;;;;17.90;99.90;;;;;;5085313;28;19958;-71
2022/06/26 00:50:47;;;;;;;;;;;17.80;99.90;;;;;;5084877;28;19980;-69
2022/06/26 00:53:14;;;;;;;;;;;17.80;99.90;;;;;;5085052;28;20144;-70
2022/06/26 00:55:41;;;;;;;;;;;17.70;99.90;;;;;;5084919;28;19927;-69
2022/06/26 00:58:09;;;;;;;;;;;17.70;99.90;;;;;;5084984;28;19955;-70
2022/06/26 01:00:36;;;;;;;;;;;17.70;99.90;;;;;;5084718;28;20147;-70
2022/06/26 01:03:03;;;;;;;;;;;17.70;99.90;;;;;;5084600;28;19921;-70
2022/06/26 01:05:29;;;;;;;;;;;17.70;99.90;;;;;;5084616;28;19956;-70
2022/06/26 01:07:56;;;;;;;;;;;17.60;99.90;;;;;;5084535;28;19921;-70
2022/06/26 01:10:24;;;;;;;;;;;17.50;99.90;;;;;;5084539;28;19958;-70
2022/06/26 01:12:51;;;;;;;;;;;17.50;99.90;;;;;;5084104;28;19920;-69
2022/06/26 01:15:20;;;;;;;;;;;17.40;99.90;;;;;;5084534;28;19956;-70
2022/06/26 01:17:46;;;;;;;;;;;17.40;99.90;;;;;;5084509;28;20147;-69
2022/06/26 01:20:13;;;;;;;;;;;17.40;99.90;;;;;;5084334;28;19980;-69
2022/06/26 01:22:41;;;;;;;;;;;17.40;99.90;;;;;;5084139;28;19954;-70
2022/06/26 01:25:08;;;;;;;;;;;17.40;99.90;;;;;;5084152;28;19956;-70
2022/06/26 01:27:40;;;;;;;;;;;17.50;99.90;;;;;;5084323;28;19958;-70
2022/06/26 01:30:07;;;;;;;;;;;17.50;99.90;;;;;;5084064;28;19921;-70
2022/06/26 01:32:34;;;;;;;;;;;17.40;99.90;;;;;;5083855;28;20204;-70
2022/06/26 01:35:01;;;;;;;;;;;17.40;99.90;;;;;;5083946;28;19963;-70
2022/06/26 01:37:28;;;;;;;;;;;17.40;99.90;;;;;;5083301;28;20227;-70
2022/06/26 01:39:56;;;;;;;;;;;17.30;99.90;;;;;;5084220;28;19927;-70
2022/06/26 01:42:23;;;;;;;;;;;17.20;99.90;;;;;;5083685;28;19963;-70
2022/06/26 01:44:49;;;;;;;;;;;17.10;99.90;;;;;;5084076;28;20186;-70
2022/06/26 01:47:16;;;;;;;;;;;17.10;99.90;;;;;;5083822;28;19967;-70
2022/06/26 01:49:43;;;;;;;;;;;17.00;99.90;;;;;;5083592;28;19987;-70
2022/06/26 01:52:09;;;;;;;;;;;17.00;99.90;;;;;;5083869;28;19920;-70
2022/06/26 01:54:36;;;;;;;;;;;17.00;99.90;;;;;;5083878;28;19962;-70
2022/06/26 01:57:04;;;;;;;;;;;16.90;99.90;;;;;;5083672;28;20230;-70
2022/06/26 01:59:31;;;;;;;;;;;16.80;99.90;;;;;;5083618;28;19962;-70
2022/06/26 02:01:58;;;;;;;;;;;16.80;99.90;;;;;;5083598;28;19972;-71
2022/06/26 02:04:24;;;;;;;;;;;16.80;99.90;;;;;;5083606;28;19960;-69
2022/06/26 02:06:51;;;;;;;;;;;16.80;99.90;;;;;;5083820;28;20147;-70
2022/06/26 02:14:44;;;;;;;;;;;16.70;99.90;;;;;;5083200;28;19973;-71
2022/06/26 02:17:10;;;;;;;;;;;16.80;99.90;;;;;;5083622;28;20173;-70
2022/06/26 02:19:37;;;;;;;;;;;16.70;99.90;;;;;;5083717;28;19920;-70
2022/06/26 02:22:04;;;;;;;;;;;16.70;99.90;;;;;;5083524;28;19920;-70
2022/06/26 02:24:31;;;;;;;;;;;16.70;99.90;;;;;;5083251;28;19971;-70
2022/06/26 02:26:57;;;;;;;;;;;16.70;99.90;;;;;;5083330;28;19947;-70
2022/06/26 02:29:24;;;;;;;;;;;16.70;99.90;;;;;;5094574;22;20004;-72
2022/06/26 02:31:52;;;;;;;;;;;16.60;99.90;;;;;;5083342;28;19958;-71
2022/06/26 02:34:18;;;;;;;;;;;16.50;99.90;;;;;;5082946;28;19983;-71
2022/06/26 02:36:45;;;;;;;;;;;16.50;99.90;;;;;;5082012;28;19921;-70
2022/06/26 02:39:12;;;;;;;;;;;16.50;99.90;;;;;;5083294;28;19957;-70
2022/06/26 02:41:38;;;;;;;;;;;16.50;99.90;;;;;;5081933;28;20156;-71
2022/06/26 02:44:05;;;;;;;;;;;16.40;99.90;;;;;;5082859;28;19921;-71
2022/06/26 02:46:32;;;;;;;;;;;16.40;99.90;;;;;;5083466;28;19920;-71
2022/06/26 02:49:00;;;;;;;;;;;16.40;99.90;;;;;;5083200;28;19958;-71
2022/06/26 02:51:27;;;;;;;;;;;16.30;99.90;;;;;;5083123;28;19983;-71
2022/06/26 02:53:53;;;;;;;;;;;16.30;99.90;;;;;;5082757;28;19980;-71
2022/06/26 02:56:20;;;;;;;;;;;16.30;99.90;;;;;;5082937;28;20291;-71
2022/06/26 02:58:46;;;;;;;;;;;16.20;99.90;;;;;;5083280;28;20185;-71
2022/06/26 03:01:13;;;;;;;;;;;16.30;99.90;;;;;;5083042;28;20159;-71
2022/06/26 03:03:40;;;;;;;;;;;16.20;99.90;;;;;;5082762;28;20208;-71
2022/06/26 03:06:08;;;;;;;;;;;16.20;99.90;;;;;;5082973;28;19984;-71
2022/06/26 03:08:34;;;;;;;;;;;16.20;99.90;;;;;;5083133;28;20170;-71
2022/06/26 03:11:01;;;;;;;;;;;16.10;99.90;;;;;;5082726;28;20196;-71
2022/06/26 03:13:28;;;;;;;;;;;16.10;99.90;;;;;;5082775;28;20141;-71
2022/06/26 03:15:54;;;;;;;;;;;16.00;99.90;;;;;;5083006;28;19956;-71
2022/06/26 03:18:21;;;;;;;;;;;16.10;99.90;;;;;;5083043;28;19956;-71
2022/06/26 03:20:48;;;;;;;;;;;16.00;99.90;;;;;;5083142;28;20247;-71
2022/06/26 03:23:16;;;;;;;;;;;16.10;99.90;;;;;;5082461;28;19956;-71
2022/06/26 03:25:42;;;;;;;;;;;16.00;99.90;;;;;;5082953;28;19963;-71
2022/06/26 03:28:09;;;;;;;;;;;16.00;99.90;;;;;;5082939;28;20207;-71
2022/06/26 03:30:35;;;;;;;;;;;16.00;99.90;;;;;;5082756;28;19920;-71
2022/06/26 03:33:02;;;;;;;;;;;15.90;99.90;;;;;;5082697;28;19920;-71
2022/06/26 03:35:29;;;;;;;;;;;15.90;99.90;;;;;;5082494;28;19947;-71
2022/06/26 03:37:55;;;;;;;;;;;15.90;99.90;;;;;;5081676;28;19920;-71
2022/06/26 03:40:23;;;;;;;;;;;15.90;99.90;;;;;;5081631;28;19927;-71
2022/06/26 03:42:50;;;;;;;;;;;15.80;99.90;;;;;;5082592;28;19921;-71
2022/06/26 03:45:17;;;;;;;;;;;15.70;99.90;;;;;;5082473;28;19920;-71
2022/06/26 03:47:43;;;;;;;;;;;15.50;99.90;;;;;;5084115;28;20179;-71
2022/06/26 03:50:10;;;;;;;;;;;15.40;99.90;;;;;;5086002;28;19921;-71
2022/06/26 03:52:37;;;;;;;;;;;15.30;99.90;;;;;;5085793;28;19927;-71
2022/06/26 03:55:03;;;;;;;;;;;15.40;99.90;;;;;;5086275;28;19959;-71
2022/06/26 03:57:32;;;;;;;;;;;15.40;99.90;;;;;;5086144;28;19964;-71
2022/06/26 03:59:59;;;;;;;;;;;15.40;99.90;;;;;;5085851;28;20216;-71
2022/06/26 04:02:25;;;;;;;;;;;15.50;99.90;;;;;;5085666;28;19920;-72
2022/06/26 04:04:52;;;;;;;;;;;15.50;99.90;;;;;;5085843;28;19921;-72
2022/06/26 04:07:20;;;;;;;;;;;15.50;99.90;;;;;;5085668;28;19920;-71
2022/06/26 04:09:46;;;;;;;;;;;15.50;99.90;;;;;;5085563;28;19920;-71
2022/06/26 04:12:13;;;;;;;;;;;15.60;99.90;;;;;;5085620;28;19984;-71
2022/06/26 04:14:41;;;;;;;;;;;15.70;99.90;;;;;;5085386;28;19927;-72
2022/06/26 04:17:08;;;;;;;;;;;15.80;99.90;;;;;;5085757;28;20034;-71
2022/06/26 04:19:35;;;;;;;;;;;15.80;99.90;;;;;;5085481;28;20169;-72
2022/06/26 04:22:01;;;;;;;;;;;15.90;99.90;;;;;;5085778;28;19966;-72
2022/06/26 04:24:28;;;;;;;;;;;16.00;99.90;;;;;;5085126;28;20250;-71
2022/06/26 04:26:55;;;;;;;;;;;16.10;99.90;;;;;;5085398;28;20223;-72
2022/06/26 04:29:21;;;;;;;;;;;16.10;99.90;;;;;;5085027;28;20218;-71
2022/06/26 04:31:49;;;;;;;;;;;16.20;99.90;;;;;;5085417;28;19920;-71
2022/06/26 04:34:16;;;;;;;;;;;16.30;99.90;;;;;;5084863;28;19956;-71
2022/06/26 04:36:43;;;;;;;;;;;16.40;99.90;;;;;;5084395;28;19920;-72
2022/06/26 04:39:10;;;;;;;;;;;16.50;99.90;;;;;;5085151;28;20164;-71
2022/06/26 04:41:39;;;;;;;;;;;16.60;99.90;;;;;;5084402;28;19935;-71
2022/06/26 04:44:06;;;;;;;;;;;16.70;99.90;;;;;;5084816;28;19920;-71
2022/06/26 04:46:33;;;;;;;;;;;16.80;99.90;;;;;;5084778;28;19920;-71
2022/06/26 04:49:01;;;;;;;;;;;17.00;99.90;;;;;;5085082;28;19987;-71
2022/06/26 04:51:28;;;;;;;;;;;17.10;99.90;;;;;;5085086;28;19962;-71
2022/06/26 04:53:54;;;;;;;;;;;17.20;99.90;;;;;;5084773;28;19987;-71
2022/06/26 04:56:21;;;;;;;;;;;17.30;99.90;;;;;;5084910;28;19959;-71
2022/06/26 04:58:48;;;;;;;;;;;17.50;99.90;;;;;;5084531;28;19952;-71
2022/06/26 05:01:15;;;;;;;;;;;17.60;99.90;;;;;;5084695;28;19963;-71
2022/06/26 05:03:42;;;;;;;;;;;17.70;99.90;;;;;;5084649;28;20219;-71
2022/06/26 05:06:10;;;;;;;;;;;17.90;99.90;;;;;;5084673;28;19959;-71
2022/06/26 05:08:37;;;;;;;;;;;18.00;99.90;;;;;;5084804;28;19956;-71
2022/06/26 05:11:03;;;;;;;;;;;18.10;99.90;;;;;;5084521;28;19959;-70
2022/06/26 05:13:30;;;;;;;;;;;18.20;99.90;;;;;;5084259;28;19956;-71
2022/06/26 05:15:57;;;;;;;;;;;18.30;99.90;;;;;;5084290;28;19926;-71
2022/06/26 05:18:24;;;;;;;;;;;18.50;99.90;;;;;;5084377;28;20230;-71
2022/06/26 05:20:50;;;;;;;;;;;18.60;99.90;;;;;;5084602;28;19963;-71
2022/06/26 05:23:18;;;;;;;;;;;18.70;99.90;;;;;;5084243;28;19963;-71
2022/06/26 05:25:45;;;;;;;;;;;18.80;99.90;;;;;;5084292;28;20089;-71
2022/06/26 05:28:12;;;;;;;;;;;18.90;99.90;;;;;;5084111;28;20179;-71
2022/06/26 05:30:39;;;;;;;;;;;19.00;99.90;;;;;;5083836;28;20089;-71
2022/06/26 05:33:05;;;;;;;;;;;19.00;99.90;;;;;;5084094;28;19952;-71
2022/06/26 05:35:32;;;;;;;;;;;19.10;99.90;;;;;;5084305;28;19959;-71
2022/06/26 05:37:59;;;;;;;;;;;19.00;99.90;;;;;;5083063;28;19920;-71
2022/06/26 05:40:27;;;;;;;;;;;19.10;99.90;;;;;;5082928;28;19927;-71
2022/06/26 05:42:54;;;;;;;;;;;19.10;99.90;;;;;;5083509;28;19956;-71
2022/06/26 05:45:21;;;;;;;;;;;19.20;99.90;;;;;;5084147;28;19955;-71
2022/06/26 05:47:47;;;;;;;;;;;19.30;99.90;;;;;;5083761;28;20247;-71
2022/06/26 05:50:14;;;;;;;;;;;19.40;99.90;;;;;;5083527;28;20284;-71
2022/06/26 05:52:41;;;;;;;;;;;19.50;99.90;;;;;;5083641;28;20177;-71
2022/06/26 05:55:08;;;;;;;;;;;19.60;99.90;;;;;;5083810;28;20185;-71
2022/06/26 05:57:36;;;;;;;;;;;19.80;99.90;;;;;;5083548;28;19921;-71
2022/06/26 06:00:04;;;;;;;;;;;19.80;99.90;;;;;;5083674;28;20231;-72
2022/06/26 06:02:30;;;;;;;;;;;20.00;99.90;;;;;;5083394;28;19958;-72
2022/06/26 06:04:57;;;;;;;;;;;20.00;99.90;;;;;;5083621;28;19966;-71
2022/06/26 06:07:24;;;;;;;;;;;20.20;99.90;;;;;;5083713;28;19955;-72
2022/06/26 06:09:51;;;;;;;;;;;20.30;99.90;;;;;;5082718;28;19961;-72
2022/06/26 06:12:17;;;;;;;;;;;20.30;99.90;;;;;;5083144;28;19935;-72
2022/06/26 06:14:45;;;;;;;;;;;20.40;99.90;;;;;;5083593;28;19964;-72
2022/06/26 06:19:59;;;;;;;;;;;20.50;99.90;;;;;;5076411;28;19916;-72
2022/06/26 06:22:25;;;;;;;;;;;20.60;99.90;;;;;;5083080;28;19928;-72
2022/06/26 06:24:52;;;;;;;;;;;20.70;99.90;;;;;;5083416;28;19928;-72
2022/06/26 06:27:19;;;;;;;;;;;20.70;99.90;;;;;;5083400;28;19927;-72
2022/06/26 06:29:47;;;;;;;;;;;20.80;99.90;;;;;;5083020;28;19929;-72
2022/06/26 06:32:13;;;;;;;;;;;20.90;99.90;;;;;;5083278;28;19920;-72
2022/06/26 06:34:40;;;;;;;;;;;21.00;99.90;;;;;;5083196;28;19963;-72
2022/06/26 06:37:07;;;;;;;;;;;21.10;99.90;;;;;;5082102;28;19984;-72
2022/06/26 06:39:33;;;;;;;;;;;21.20;99.90;;;;;;5082704;28;19956;-72
2022/06/26 06:42:00;;;;;;;;;;;21.30;99.90;;;;;;5083279;28;19987;-72
2022/06/26 06:44:27;;;;;;;;;;;21.40;99.90;;;;;;5082895;28;19962;-72
2022/06/26 06:46:55;;;;;;;;;;;21.40;99.90;;;;;;5083170;28;19940;-72
2022/06/26 06:49:22;;;;;;;;;;;21.40;99.90;;;;;;5083205;28;19988;-72
2022/06/26 06:51:48;;;;;;;;;;;21.40;99.90;;;;;;5082984;28;19979;-72
2022/06/26 06:54:15;;;;;;;;;;;21.50;99.90;;;;;;5083063;28;19921;-72
2022/06/26 06:56:42;;;;;;;;;;;21.60;99.90;;;;;;5083182;28;19920;-72
2022/06/26 06:59:08;;;;;;;;;;;21.70;99.90;;;;;;5082965;28;19920;-72
2022/06/26 07:01:35;;;;;;;;;;;21.70;99.90;;;;;;5082905;28;19940;-72
2022/06/26 07:04:03;;;;;;;;;;;21.80;99.90;;;;;;5082821;28;19921;-72
2022/06/26 07:06:30;;;;;;;;;;;21.80;99.90;;;;;;5083260;28;19929;-72
2022/06/26 07:08:56;;;;;;;;;;;21.80;99.90;;;;;;5083032;28;20208;-72
2022/06/26 07:11:23;;;;;;;;;;;21.80;99.90;;;;;;5083121;28;19943;-72
2022/06/26 07:13:50;;;;;;;;;;;21.80;99.90;;;;;;5083053;28;19991;-72
2022/06/26 07:16:16;;;;;;;;;;;21.80;99.90;;;;;;5082938;28;19920;-72
2022/06/26 07:18:43;;;;;;;;;;;21.70;99.90;;;;;;5083284;28;20155;-72
2022/06/26 07:21:11;;;;;;;;;;;21.70;99.90;;;;;;5083553;28;19951;-72
2022/06/26 07:23:38;;;;;;;;;;;21.70;99.90;;;;;;5086388;28;20154;-72
2022/06/26 07:26:05;;;;;;;;;;;21.80;99.90;;;;;;5086702;28;19948;-72
2022/06/26 07:28:32;;;;;;;;;;;21.90;99.90;;;;;;5086603;28;20176;-71
2022/06/26 07:30:58;;;;;;;;;;;21.90;99.90;;;;;;5086877;28;19920;-72
2022/06/26 07:36:10;;;;;;;;;;;22.20;99.90;;;;;;5086563;28;19924;-71
2022/06/26 07:38:38;;;;;;;;;;;22.40;99.90;;;;;;5086691;28;19963;-72
2022/06/26 07:41:04;;;;;;;;;;;22.40;99.90;;;;;;5085224;28;19984;-72
2022/06/26 07:43:31;;;;;;;;;;;22.50;99.90;;;;;;5086125;28;19979;-71
2022/06/26 07:45:58;;;;;;;;;;;22.40;99.90;;;;;;5086069;28;19951;-72
2022/06/26 07:48:24;;;;;;;;;;;22.60;99.90;;;;;;5086388;28;19974;-72
2022/06/26 07:50:52;;;;;;;;;;;22.70;99.90;;;;;;5086185;28;20138;-72
2022/06/26 07:53:19;;;;;;;;;;;22.70;99.90;;;;;;5086031;28;19920;-71
2022/06/26 07:55:47;;;;;;;;;;;22.90;99.90;;;;;;5086184;28;19920;-71
2022/06/26 07:58:14;;;;;;;;;;;23.00;99.90;;;;;;5086065;28;19920;-72
2022/06/26 08:00:40;;;;;;;;;;;23.00;99.90;;;;;;5085979;28;19963;-72
2022/06/26 08:03:08;;;;;;;;;;;23.10;99.90;;;;;;5085863;28;19987;-72
2022/06/26 08:05:35;;;;;;;;;;;23.20;99.90;;;;;;5085984;28;19920;-72
2022/06/26 08:08:02;;;;;;;;;;;23.20;99.90;;;;;;5085788;28;19952;-72
2022/06/26 08:10:29;;;;;;;;;;;23.30;99.90;;;;;;5085696;28;19956;-72
2022/06/26 08:12:57;;;;;;;;;;;23.40;99.90;;;;;;5085422;28;19967;-72
2022/06/26 08:15:23;;;;;;;;;;;23.50;99.90;;;;;;5085671;28;19956;-72
2022/06/26 08:17:51;;;;;;;;;;;23.60;99.90;;;;;;5085885;28;19980;-72
2022/06/26 08:20:17;;;;;;;;;;;23.60;99.90;;;;;;5086349;28;19984;-71
2022/06/26 08:22:44;;;;;;;;;;;23.60;99.90;;;;;;5085357;28;19927;-71
2022/06/26 08:25:11;;;;;;;;;;;23.60;99.90;;;;;;5085466;28;19921;-71
2022/06/26 08:27:37;;;;;;;;;;;23.70;99.90;;;;;;5085352;28;19980;-71
2022/06/26 08:30:06;;;;;;;;;;;23.80;99.90;;;;;;5097121;22;19963;-68
2022/06/26 08:32:33;;;;;;;;;;;23.90;99.90;;;;;;5084793;28;19920;-69
2022/06/26 08:34:59;;;;;;;;;;;24.00;99.90;;;;;;5084904;28;20234;-68
2022/06/26 08:37:26;;;;;;;;;;;24.20;99.90;;;;;;5084875;28;19988;-69
2022/06/26 08:39:53;;;;;;;;;;;24.30;99.90;;;;;;5084701;28;20208;-70
2022/06/26 08:42:20;;;;;;;;;;;24.30;99.90;;;;;;5084838;28;19927;-69
2022/06/26 08:44:47;;;;;;;;;;;24.30;99.90;;;;;;5085293;28;19956;-69
2022/06/26 08:47:18;;;;;;;;;;;24.30;99.90;;;;;;5085239;28;19955;-69
2022/06/26 08:49:44;;;;;;;;;;;24.30;99.90;;;;;;5084959;28;19963;-68
2022/06/26 08:52:13;;;;;;;;;;;24.30;99.90;;;;;;5084849;28;19996;-69
2022/06/26 08:54:40;;;;;;;;;;;24.40;99.90;;;;;;5084677;28;19921;-69
2022/06/26 08:57:07;;;;;;;;;;;24.40;99.90;;;;;;5084835;28;20254;-69
2022/06/26 08:59:34;;;;;;;;;;;24.50;99.90;;;;;;5084983;28;19920;-69
2022/06/26 09:02:01;;;;;;;;;;;24.50;99.90;;;;;;5084902;28;19936;-69
2022/06/26 09:04:29;;;;;;;;;;;24.60;99.90;;;;;;5084694;28;19920;-69
2022/06/26 09:06:56;;;;;;;;;;;24.70;99.90;;;;;;5084698;28;19983;-68
2022/06/26 09:09:23;;;;;;;;;;;24.80;99.90;;;;;;5084507;28;19962;-69
2022/06/26 09:11:51;;;;;;;;;;;24.70;99.90;;;;;;5084639;28;19926;-69
2022/06/26 09:14:18;;;;;;;;;;;24.80;99.90;;;;;;5084246;28;20204;-71
2022/06/26 09:16:45;;;;;;;;;;;24.80;99.90;;;;;;5084492;28;19988;-69
2022/06/26 09:19:13;;;;;;;;;;;24.80;99.90;;;;;;5084600;28;19947;-68
2022/06/26 09:21:41;;;;;;;;;;;24.80;99.90;;;;;;5084375;28;19921;-69
2022/06/26 09:24:09;;;;;;;;;;;24.80;99.90;;;;;;5084642;28;19921;-68
2022/06/26 09:26:36;;;;;;;;;;;24.90;99.90;;;;;;5084828;28;19927;-68
2022/06/26 09:29:08;;;;;;;;;;;25.00;99.90;;;;;;5084945;28;19962;-70
2022/06/26 09:31:37;;;;;;;;;;;25.20;99.90;;;;;;5084538;28;19942;-69
2022/06/26 09:34:04;;;;;;;;;;;25.30;99.90;;;;;;5084381;28;19936;-68
2022/06/26 09:36:30;;;;;;;;;;;25.50;99.90;;;;;;5084273;28;19952;-69
2022/06/26 09:38:58;;;;;;;;;;;25.60;99.90;;;;;;5084370;28;19920;-69
2022/06/26 09:41:29;;;;;;;;;;;25.80;99.90;;;;;;5083489;28;19960;-69
2022/06/26 09:43:57;;;;;;;;;;;26.00;99.90;;;;;;5084004;28;19984;-69
2022/06/26 09:46:28;;;;;;;;;;;26.10;99.90;;;;;;5084011;28;19921;-69
2022/06/26 09:48:57;;;;;;;;;;;26.30;99.90;;;;;;5083799;28;19984;-69
2022/06/26 09:51:24;;;;;;;;;;;26.40;99.90;;;;;;5083636;28;19991;-69
2022/06/26 09:53:51;;;;;;;;;;;26.60;99.90;;;;;;5083742;28;19920;-69
2022/06/26 09:56:19;;;;;;;;;;;26.70;99.90;;;;;;5084059;28;20170;-69
2022/06/26 09:58:46;;;;;;;;;;;26.80;99.90;;;;;;5083800;28;19951;-70
2022/06/26 10:06:43;;;;;;;;;;;26.90;99.90;;;;;;5083665;28;19923;-69
2022/06/26 10:09:10;;;;;;;;;;;26.80;99.90;;;;;;5083757;28;19920;-68
2022/06/26 10:11:39;;;;;;;;;;;26.80;99.90;;;;;;5083365;28;19928;-71
2022/06/26 10:14:08;;;;;;;;;;;26.90;99.90;;;;;;5083624;28;19926;-68
2022/06/26 10:16:42;;;;;;;;;;;27.00;99.90;;;;;;5083596;28;20382;-68
2022/06/26 10:19:21;;;;;;;;;;;27.00;99.90;;;;;;5083694;28;19956;-68
2022/06/26 10:21:48;;;;;;;;;;;27.20;99.90;;;;;;5083550;28;19920;-69
2022/06/26 10:24:15;;;;;;;;;;;27.30;99.90;;;;;;5083126;28;20114;-69
2022/06/26 10:26:56;;;;;;;;;;;27.50;99.90;;;;;;5082753;28;20125;-71
2022/06/26 10:29:32;;;;;;;;;;;27.50;99.90;;;;;;5083385;28;19963;-69
2022/06/26 10:31:59;;;;;;;;;;;27.60;99.90;;;;;;5083337;28;19920;-69
2022/06/26 10:34:26;;;;;;;;;;;27.60;99.90;;;;;;5083040;28;19982;-69
2022/06/26 10:37:00;;;;;;;;;;;27.60;99.90;;;;;;5082696;28;19920;-69
2022/06/26 10:39:37;;;;;;;;;;;27.80;99.90;;;;;;5083401;28;19920;-69
2022/06/26 10:44:53;;;;;;;;;;;27.90;99.90;;;;;;5083358;28;19928;-69
2022/06/26 10:47:19;;;;;;;;;;;28.00;99.90;;;;;;5083369;28;19971;-68
2022/06/26 10:49:47;;;;;;;;;;;28.10;99.90;;;;;;5083314;28;20091;-68
2022/06/26 10:52:22;;;;;;;;;;;28.10;99.90;;;;;;5082960;28;19925;-69
2022/06/26 10:54:50;;;;;;;;;;;28.20;99.90;;;;;;5083116;28;20246;-69
2022/06/26 10:57:24;;;;;;;;;;;28.30;99.90;;;;;;5085584;28;19931;-70
2022/06/26 10:59:51;;;;;;;;;;;28.50;99.90;;;;;;5087330;28;19960;-69
2022/06/26 11:02:18;;;;;;;;;;;28.60;99.90;;;;;;5087093;28;19947;-69
2022/06/26 11:04:45;;;;;;;;;;;28.80;99.90;;;;;;5087162;28;19948;-72
2022/06/26 11:07:14;;;;;;;;;;;29.00;99.90;;;;;;5087162;28;19920;-68
2022/06/26 11:09:40;;;;;;;;;;;29.20;99.90;;;;;;5087023;28;19943;-69
2022/06/26 11:12:07;;;;;;;;;;;29.20;99.90;;;;;;5086803;28;19963;-69
2022/06/26 11:14:35;;;;;;;;;;;29.20;99.90;;;;;;5087132;28;19920;-68
2022/06/26 11:17:02;;;;;;;;;;;29.10;99.90;;;;;;5086754;28;19927;-69
2022/06/26 11:19:30;;;;;;;;;;;29.00;99.90;;;;;;5086862;28;19921;-69
2022/06/26 11:22:04;;;;;;;;;;;29.10;99.90;;;;;;5086648;28;19920;-69
2022/06/26 11:24:32;;;;;;;;;;;29.20;99.90;;;;;;5086344;28;19927;-68
2022/06/26 11:26:58;;;;;;;;;;;29.30;99.90;;;;;;5086867;28;19952;-69
2022/06/26 11:29:25;;;;;;;;;;;29.40;99.90;;;;;;5086525;28;20167;-68
2022/06/26 11:31:54;;;;;;;;;;;29.60;99.90;;;;;;5086619;28;19963;-69
2022/06/26 11:34:21;;;;;;;;;;;29.60;99.90;;;;;;5086300;28;19954;-70
2022/06/26 11:36:51;;;;;;;;;;;29.70;99.90;;;;;;5085572;28;19959;-69
2022/06/26 11:39:18;;;;;;;;;;;29.90;99.90;;;;;;5086143;28;19924;-70
2022/06/26 11:41:45;;;;;;;;;;;30.10;99.90;;;;;;5085928;28;19959;-69
2022/06/26 11:44:11;;;;;;;;;;;30.30;99.90;;;;;;5086050;28;19987;-70
2022/06/26 11:46:38;;;;;;;;;;;30.40;99.90;;;;;;5086201;28;19927;-70
2022/06/26 11:49:09;;;;;;;;;;;30.30;99.90;;;;;;5086354;28;20257;-70
2022/06/26 11:51:37;;;;;;;;;;;30.30;99.70;;;;;;5085949;28;20168;-70
2022/06/26 11:54:04;;;;;;;;;;;30.40;97.60;;;;;;5085761;28;20223;-70
2022/06/26 11:56:31;;;;;;;;;;;30.60;96.70;;;;;;5086208;28;19920;-70
2022/06/26 11:58:59;;;;;;;;;;;30.80;96.50;;;;;;5086163;28;19920;-70
2022/06/26 12:01:31;;;;;;;;;;;30.90;96.10;;;;;;5085930;28;19959;-70
2022/06/26 12:03:57;;;;;;;;;;;30.90;96.00;;;;;;5085752;28;20173;-70
2022/06/26 12:06:32;;;;;;;;;;;30.90;96.00;;;;;;5085823;28;19995;-71
2022/06/26 12:08:59;;;;;;;;;;;31.00;95.70;;;;;;5084929;28;19920;-70
2022/06/26 12:11:26;;;;;;;;;;;31.00;95.60;;;;;;5085797;28;19959;-70
2022/06/26 12:13:53;;;;;;;;;;;31.10;96.10;;;;;;5085593;28;20151;-70
2022/06/26 12:16:20;;;;;;;;;;;31.30;96.20;;;;;;5085751;28;19995;-70
2022/06/26 12:18:49;;;;;;;;;;;31.50;95.60;;;;;;5085637;28;19920;-70
2022/06/26 12:21:17;;;;;;;;;;;31.60;96.50;;;;;;5085552;28;19927;-70
2022/06/26 12:23:45;;;;;;;;;;;31.60;94.20;;;;;;5085445;28;19921;-70
2022/06/26 12:26:13;;;;;;;;;;;31.70;94.60;;;;;;5085636;28;19959;-71
2022/06/26 12:28:44;;;;;;;;;;;31.80;94.90;;;;;;5085359;28;19988;-71
2022/06/26 12:31:11;;;;;;;;;;;31.90;94.20;;;;;;5085227;28;19927;-71
2022/06/26 12:33:38;;;;;;;;;;;32.00;93.30;;;;;;5085234;28;19995;-71
2022/06/26 12:36:05;;;;;;;;;;;31.90;93.60;;;;;;5085492;28;19921;-70
2022/06/26 12:38:33;;;;;;;;;;;32.10;93.70;;;;;;5084528;28;19970;-70
2022/06/26 12:41:02;;;;;;;;;;;32.30;93.40;;;;;;5085240;28;19920;-70
2022/06/26 12:43:28;;;;;;;;;;;32.40;92.00;;;;;;5084953;28;19928;-71
2022/06/26 12:45:55;;;;;;;;;;;32.50;91.40;;;;;;5084943;28;20239;-71
2022/06/26 12:48:22;;;;;;;;;;;32.60;92.40;;;;;;5084970;28;20253;-71
2022/06/26 12:50:48;;;;;;;;;;;32.80;91.80;;;;;;5085189;28;19955;-70
2022/06/26 12:53:15;;;;;;;;;;;32.90;91.90;;;;;;5084676;28;19956;-71
2022/06/26 12:55:42;;;;;;;;;;;33.10;91.30;;;;;;5085050;28;19947;-69
2022/06/26 12:58:10;;;;;;;;;;;33.30;91.30;;;;;;5084914;28;19948;-71
2022/06/26 13:00:36;;;;;;;;;;;33.50;92.00;;;;;;5084566;28;19958;-70
2022/06/26 13:03:03;;;;;;;;;;;33.40;91.60;;;;;;5084532;28;20212;-70
2022/06/26 13:05:30;;;;;;;;;;;33.20;92.00;;;;;;5084914;28;20135;-70
2022/06/26 13:07:56;;;;;;;;;;;33.10;93.30;;;;;;5084786;28;19920;-70
2022/06/26 13:10:23;;;;;;;;;;;33.10;92.30;;;;;;5084667;28;19998;-70
2022/06/26 13:12:50;;;;;;;;;;;33.10;92.10;;;;;;5084201;28;19959;-71
2022/06/26 13:15:18;;;;;;;;;;;33.00;92.20;;;;;;5084788;28;19959;-70
2022/06/26 13:17:45;;;;;;;;;;;32.60;92.40;;;;;;5084662;28;20115;-70
2022/06/26 13:20:12;;;;;;;;;;;32.40;91.70;;;;;;5084045;28;19928;-70
2022/06/26 13:22:38;;;;;;;;;;;32.50;92.60;;;;;;5084159;28;19987;-69
2022/06/26 13:25:06;;;;;;;;;;;32.40;91.60;;;;;;5084449;28;19920;-70
2022/06/26 13:27:32;;;;;;;;;;;32.30;91.50;;;;;;5084180;28;19958;-69
2022/06/26 13:29:59;;;;;;;;;;;32.40;92.00;;;;;;5084016;28;20200;-71
2022/06/26 13:32:27;;;;;;;;;;;32.50;92.30;;;;;;5084012;28;19981;-70
2022/06/26 13:34:54;;;;;;;;;;;32.60;91.50;;;;;;5084227;28;19951;-70
2022/06/26 13:37:21;;;;;;;;;;;32.70;91.30;;;;;;5083415;28;20145;-70
2022/06/26 13:39:47;;;;;;;;;;;32.90;91.00;;;;;;5084537;28;19951;-70
2022/06/26 13:42:14;;;;;;;;;;;33.00;90.80;;;;;;5083728;28;19928;-70
2022/06/26 13:44:41;;;;;;;;;;;33.20;89.70;;;;;;5084143;28;19927;-71
2022/06/26 13:47:07;;;;;;;;;;;33.40;90.70;;;;;;5084008;28;19996;-70
2022/06/26 13:49:36;;;;;;;;;;;33.50;90.00;;;;;;5083930;28;19920;-71
2022/06/26 13:52:03;;;;;;;;;;;33.50;90.00;;;;;;5083807;28;19920;-69
2022/06/26 13:54:31;;;;;;;;;;;33.50;86.80;;;;;;5083510;28;19920;-70
2022/06/26 13:56:58;;;;;;;;;;;33.60;89.10;;;;;;5083769;28;19960;-71
2022/06/26 13:59:25;;;;;;;;;;;33.80;87.80;;;;;;5083867;28;19987;-70
2022/06/26 14:01:51;;;;;;;;;;;34.00;88.20;;;;;;5083788;28;19920;-69
2022/06/26 14:04:20;;;;;;;;;;;34.20;87.20;;;;;;5083487;28;20170;-71
2022/06/26 14:06:48;;;;;;;;;;;34.20;85.80;;;;;;5083786;28;19921;-70
2022/06/26 14:09:15;;;;;;;;;;;34.30;86.90;;;;;;5083573;28;19984;-70
2022/06/26 14:11:41;;;;;;;;;;;34.50;85.10;;;;;;5083767;28;19963;-71
2022/06/26 14:14:08;;;;;;;;;;;34.70;85.50;;;;;;5083394;28;19920;-70
2022/06/26 14:16:35;;;;;;;;;;;34.90;84.50;;;;;;5083503;28;19954;-70
2022/06/26 14:19:01;;;;;;;;;;;35.10;85.80;;;;;;5083523;28;19921;-71
2022/06/26 14:21:28;;;;;;;;;;;35.10;83.50;;;;;;5083367;28;19959;-70
2022/06/26 14:26:40;;;;;;;;;;;35.00;84.10;;;;;;5083431;28;19995;-70
2022/06/26 14:29:07;;;;;;;;;;;35.10;81.80;;;;;;5083504;28;19921;-71
2022/06/26 14:31:34;;;;;;;;;;;35.20;82.70;;;;;;5098613;22;19952;-88
2022/06/26 14:34:03;;;;;;;;;;;35.00;80.60;;;;;;5076834;28;19920;-87
2022/06/26 14:36:30;;;;;;;;;;;34.60;80.80;;;;;;5080361;28;19924;-89
2022/06/26 14:38:58;;;;;;;;;;;34.30;79.60;;;;;;5089159;28;19931;-88